Terminal Aerodrome Forecast
Issued by NWS

Home | Current Version | Previous Version | Text Only | Print | Product List | Glossary On
Versions: 1 2 3 4 5 6 7 8 9 10 11 12 13
000
FTUS44 KEPZ 310500
TAFTCS
TAF
KTCS 310524Z 3106/0106 35010G17KT P6SM BKN250
     FM311400 03013KT P6SM BKN250
     FM311900 12010G17KT P6SM BKN250=

USA.gov is the U.S. government's official web portal to all federal, state and local government web resources and services.